CST,Max TemperatureF,Mean TemperatureF,Min TemperatureF,Max Dew PointF,MeanDew PointF,Min DewpointF,Max Humidity, Mean Humidity, Min Humidity, Max Sea Level PressureIn, Mean Sea Level PressureIn, Min Sea Level PressureIn, Max VisibilityMiles, Mean VisibilityMiles, Min VisibilityMiles, Max Wind SpeedMPH, Mean Wind SpeedMPH, Max Gust SpeedMPH,PrecipitationIn, CloudCover, Events, WindDirDegrees
2012-11-1,46,36,26,36,29,21,87,69,49,30.04,29.97,29.91,10,10,10,15,6,22,0.00,3,,326
2012-11-2,37,28,19,28,26,19,100,81,70,30.15,30.11,30.05,10,10,10,7,2,,0.00,2,,30
2012-11-3,42,38,33,36,30,28,93,73,57,30.22,30.18,30.14,10,10,10,4,0,,0.00,8,,295
2012-11-4,44,38,33,39,36,34,100,89,76,30.22,30.17,30.12,10,8,3,10,2,,0.00,8,,91
2012-11-5,44,42,39,39,38,37,100,88,76,30.18,30.12,29.95,10,6,2,13,5,20,0.01,7,Rain,139
2012-11-6,44,40,37,39,38,34,100,92,76,29.97,29.86,29.78,10,8,2,18,11,26,0.20,8,Rain,271
2012-11-7,44,38,33,36,34,30,93,85,70,30.12,30.07,29.98,10,10,10,8,4,,0.00,6,,253
2012-11-8,55,42,30,41,35,30,100,81,54,30.07,29.98,29.92,10,9,4,20,8,25,0.00,0,,171
2012-11-9,51,40,28,43,37,28,100,86,67,30.02,29.96,29.89,10,6,1,17,6,22,0.00,2,,59
2012-11-10,73,58,44,57,52,41,100,81,53,29.88,29.63,29.49,10,7,2,22,14,29,0.18,5,Rain-Thunderstorm,136
2012-11-11,55,38,21,54,29,14,100,90,74,29.97,29.79,29.56,10,9,2,20,12,26,0.03,8,Rain-Snow,264
2012-11-12,24,22,19,19,17,12,93,82,69,30.30,30.09,29.96,10,9,1,22,13,31,0.00,5,Snow,253
2012-11-13,42,28,15,28,22,12,93,75,53,30.36,30.31,30.27,10,10,10,12,6,17,0.00,2,,173
2012-11-14,51,40,30,36,33,28,100,74,50,30.27,30.22,30.16,10,10,10,9,6,,0.00,4,,173
2012-11-15,51,38,26,37,30,16,87,68,54,30.44,30.26,30.14,10,10,10,13,7,17,0.00,2,,270
2012-11-16,44,30,15,30,20,10,86,67,39,30.47,30.41,30.32,10,10,10,9,3,,0.00,0,,142
2012-11-17,53,45,37,39,36,32,87,70,54,30.33,30.26,30.21,10,10,7,16,11,24,0.00,1,,163
2012-11-18,60,51,42,36,34,32,66,57,39,30.22,30.13,30.07,10,10,10,18,14,29,0.00,2,,162
2012-11-19,57,45,33,43,38,34,100,71,54,30.11,30.05,30.01,10,10,7,16,8,20,0.00,2,,166
2012-11-20,53,38,24,39,34,25,100,84,54,30.17,30.12,30.06,10,7,0,9,1,,0.00,1,Fog,204
2012-11-21,66,52,39,45,40,34,81,64,43,30.06,29.91,29.73,10,10,10,15,9,20,0.00,0,,180
2012-11-22,57,42,24,45,37,18,93,74,55,30.01,29.77,29.65,10,10,3,28,14,39,0.00,3,Snow,238
2012-11-23,26,20,14,19,15,12,93,80,64,30.36,30.25,30.02,10,8,3,29,19,37,0.00,7,Snow,297
2012-11-24,28,17,6,19,14,3,100,78,59,30.33,30.08,29.80,10,10,10,13,5,17,0.00,4,,165
2012-11-25,32,28,23,25,22,12,86,76,63,30.15,29.96,29.80,10,10,10,16,8,21,0.00,6,,284
2012-11-26,23,16,10,12,8,7,85,71,54,30.39,30.33,30.16,10,10,10,13,8,17,0.00,1,,300
2012-11-27,37,24,10,25,17,7,100,75,60,30.35,30.21,30.10,10,10,10,15,6,21,0.00,1,,205
2012-11-28,35,28,21,25,23,19,100,79,65,30.34,30.24,30.09,10,10,10,9,6,,0.00,2,,219
2012-11-29,42,30,17,28,25,16,100,75,57,30.08,30.04,30.00,10,10,5,12,4,,0.00,0,,66
2012-11-30,35,32,30,34,30,27,100,87,75,30.15,30.09,30.04,10,5,2,13,7,17,0.00,7,,85